sensor_id;sensor_type;location;lat;lon;timestamp;temperature;humidity
22676;DHT22;12521;43.310;21.876;2023-02-19T00:03:58;6.4;96.0
22676;DHT22;12521;43.310;21.876;2023-02-19T00:08:47;6.3;96.0
22676;DHT22;12521;43.310;21.876;2023-02-19T00:13:25;6.3;96.0
22676;DHT22;12521;43.310;21.876;2023-02-19T00:18:02;6.2;96.0
22676;DHT22;12521;43.310;21.876;2023-02-19T00:22:39;6.2;96.0
22676;DHT22;12521;43.310;21.876;2023-02-19T00:27:16;6.1;96.0
22676;DHT22;12521;43.310;21.876;2023-02-19T00:31:52;6.1;96.0
22676;DHT22;12521;43.310;21.876;2023-02-19T00:36:30;6.1;96.0
22676;DHT22;12521;43.310;21.876;2023-02-19T00:41:13;6.1;96.0
22676;DHT22;12521;43.310;21.876;2023-02-19T00:45:54;6.1;96.0
22676;DHT22;12521;43.310;21.876;2023-02-19T00:50:30;6.1;96.0
22676;DHT22;12521;43.310;21.876;2023-02-19T00:55:07;6.1;96.0
22676;DHT22;12521;43.310;21.876;2023-02-19T00:59:43;6.0;96.0
22676;DHT22;12521;43.310;21.876;2023-02-19T01:04:20;6.0;96.0
22676;DHT22;12521;43.310;21.876;2023-02-19T01:08:57;6.0;96.0
22676;DHT22;12521;43.310;21.876;2023-02-19T01:13:35;6.0;96.0
22676;DHT22;12521;43.310;21.876;2023-02-19T01:18:15;5.9;96.0
22676;DHT22;12521;43.310;21.876;2023-02-19T01:22:53;5.9;96.0
22676;DHT22;12521;43.310;21.876;2023-02-19T01:27:30;5.8;96.0
22676;DHT22;12521;43.310;21.876;2023-02-19T01:32:07;5.8;96.0
22676;DHT22;12521;43.310;21.876;2023-02-19T01:36:44;5.8;96.0
22676;DHT22;12521;43.310;21.876;2023-02-19T01:41:24;5.8;96.0
22676;DHT22;12521;43.310;21.876;2023-02-19T01:46:01;5.8;96.0
22676;DHT22;12521;43.310;21.876;2023-02-19T01:50:43;5.7;96.0
22676;DHT22;12521;43.310;21.876;2023-02-19T01:55:39;5.7;96.0
22676;DHT22;12521;43.310;21.876;2023-02-19T02:00:29;5.7;96.0
22676;DHT22;12521;43.310;21.876;2023-02-19T02:05:14;5.7;96.0
22676;DHT22;12521;43.310;21.876;2023-02-19T02:10:27;5.7;96.0
22676;DHT22;12521;43.310;21.876;2023-02-19T02:15:05;5.7;96.0
22676;DHT22;12521;43.310;21.876;2023-02-19T02:20:00;5.7;96.0
22676;DHT22;12521;43.310;21.876;2023-02-19T02:25:44;5.7;96.0
22676;DHT22;12521;43.310;21.876;2023-02-19T02:31:18;5.7;96.0
22676;DHT22;12521;43.310;21.876;2023-02-19T02:36:21;5.7;96.0
22676;DHT22;12521;43.310;21.876;2023-02-19T02:41:15;5.7;96.0
22676;DHT22;12521;43.310;21.876;2023-02-19T02:45:53;5.7;96.0
22676;DHT22;12521;43.310;21.876;2023-02-19T02:50:34;5.7;96.0
22676;DHT22;12521;43.310;21.876;2023-02-19T02:55:34;5.7;96.0
22676;DHT22;12521;43.310;21.876;2023-02-19T03:00:28;5.6;96.0
22676;DHT22;12521;43.310;21.876;2023-02-19T03:05:17;5.6;96.0
22676;DHT22;12521;43.310;21.876;2023-02-19T03:10:05;5.5;96.0
22676;DHT22;12521;43.310;21.876;2023-02-19T03:15:01;5.5;96.0
22676;DHT22;12521;43.310;21.876;2023-02-19T03:19:52;5.5;96.0
22676;DHT22;12521;43.310;21.876;2023-02-19T03:24:48;5.5;96.0
22676;DHT22;12521;43.310;21.876;2023-02-19T03:29:41;5.5;96.0
22676;DHT22;12521;43.310;21.876;2023-02-19T03:34:28;5.5;96.0
22676;DHT22;12521;43.310;21.876;2023-02-19T03:39:21;5.4;96.0
22676;DHT22;12521;43.310;21.876;2023-02-19T03:44:07;5.4;96.0
22676;DHT22;12521;43.310;21.876;2023-02-19T03:49:16;5.3;96.0
22676;DHT22;12521;43.310;21.876;2023-02-19T03:54:20;5.3;96.0
22676;DHT22;12521;43.310;21.876;2023-02-19T03:59:32;5.2;96.0
22676;DHT22;12521;43.310;21.876;2023-02-19T04:04:37;5.2;96.0
22676;DHT22;12521;43.310;21.876;2023-02-19T04:09:36;5.1;96.0
22676;DHT22;12521;43.310;21.876;2023-02-19T04:14:30;5.1;96.0
22676;DHT22;12521;43.310;21.876;2023-02-19T04:19:37;5.0;96.0
22676;DHT22;12521;43.310;21.876;2023-02-19T04:24:28;5.0;96.0
22676;DHT22;12521;43.310;21.876;2023-02-19T04:29:26;5.0;96.0
22676;DHT22;12521;43.310;21.876;2023-02-19T04:34:03;5.0;96.0
22676;DHT22;12521;43.310;21.876;2023-02-19T04:38:40;4.8;96.0
22676;DHT22;12521;43.310;21.876;2023-02-19T04:43:21;4.8;96.0
22676;DHT22;12521;43.310;21.876;2023-02-19T04:47:58;4.7;96.0
22676;DHT22;12521;43.310;21.876;2023-02-19T04:52:35;4.7;96.0
22676;DHT22;12521;43.310;21.876;2023-02-19T04:57:11;4.6;96.0
22676;DHT22;12521;43.310;21.876;2023-02-19T05:01:48;4.6;96.0
22676;DHT22;12521;43.310;21.876;2023-02-19T05:06:24;4.6;96.0
22676;DHT22;12521;43.310;21.876;2023-02-19T05:11:02;4.6;96.0
22676;DHT22;12521;43.310;21.876;2023-02-19T05:15:55;4.6;96.0
22676;DHT22;12521;43.310;21.876;2023-02-19T05:20:41;4.6;96.0
22676;DHT22;12521;43.310;21.876;2023-02-19T05:25:18;4.6;96.0
22676;DHT22;12521;43.310;21.876;2023-02-19T05:29:54;4.5;96.0
22676;DHT22;12521;43.310;21.876;2023-02-19T05:34:31;4.5;96.0
22676;DHT22;12521;43.310;21.876;2023-02-19T05:39:10;4.4;96.0
22676;DHT22;12521;43.310;21.876;2023-02-19T05:43:48;4.4;96.0
22676;DHT22;12521;43.310;21.876;2023-02-19T05:48:28;4.4;96.0
22676;DHT22;12521;43.310;21.876;2023-02-19T05:53:05;4.4;96.0
22676;DHT22;12521;43.310;21.876;2023-02-19T05:57:43;4.4;96.0
22676;DHT22;12521;43.310;21.876;2023-02-19T06:02:23;4.4;96.0
22676;DHT22;12521;43.310;21.876;2023-02-19T06:06:59;4.4;96.0
22676;DHT22;12521;43.310;21.876;2023-02-19T06:11:36;4.4;96.0
22676;DHT22;12521;43.310;21.876;2023-02-19T06:16:15;4.4;96.0
22676;DHT22;12521;43.310;21.876;2023-02-19T06:20:53;4.5;96.0
22676;DHT22;12521;43.310;21.876;2023-02-19T06:25:35;4.5;96.0
22676;DHT22;12521;43.310;21.876;2023-02-19T06:30:12;4.6;96.0
22676;DHT22;12521;43.310;21.876;2023-02-19T06:34:49;4.6;96.0
22676;DHT22;12521;43.310;21.876;2023-02-19T06:39:26;4.6;96.0
22676;DHT22;12521;43.310;21.876;2023-02-19T06:44:03;4.6;96.0
22676;DHT22;12521;43.310;21.876;2023-02-19T06:48:43;4.7;96.0
22676;DHT22;12521;43.310;21.876;2023-02-19T06:53:21;4.7;96.0
22676;DHT22;12521;43.310;21.876;2023-02-19T06:58:00;4.8;96.0
22676;DHT22;12521;43.310;21.876;2023-02-19T07:02:37;4.8;96.0
22676;DHT22;12521;43.310;21.876;2023-02-19T07:07:14;4.9;96.0
22676;DHT22;12521;43.310;21.876;2023-02-19T07:11:51;4.9;96.0
22676;DHT22;12521;43.310;21.876;2023-02-19T07:16:28;4.9;96.0
22676;DHT22;12521;43.310;21.876;2023-02-19T07:21:08;5.1;96.0
22676;DHT22;12521;43.310;21.876;2023-02-19T07:25:51;5.1;96.0
22676;DHT22;12521;43.310;21.876;2023-02-19T07:30:28;5.2;96.0
22676;DHT22;12521;43.310;21.876;2023-02-19T07:35:05;5.2;96.0
22676;DHT22;12521;43.310;21.876;2023-02-19T07:39:43;5.4;96.0
22676;DHT22;12521;43.310;21.876;2023-02-19T07:44:20;5.4;96.0
22676;DHT22;12521;43.310;21.876;2023-02-19T07:48:56;5.6;96.0
22676;DHT22;12521;43.310;21.876;2023-02-19T07:53:35;5.6;96.0
22676;DHT22;12521;43.310;21.876;2023-02-19T07:58:11;5.8;96.0
22676;DHT22;12521;43.310;21.876;2023-02-19T08:02:49;5.8;96.0
22676;DHT22;12521;43.310;21.876;2023-02-19T08:07:30;6.1;96.0
22676;DHT22;12521;43.310;21.876;2023-02-19T08:12:10;6.1;96.0
22676;DHT22;12521;43.310;21.876;2023-02-19T08:16:47;6.1;96.0
22676;DHT22;12521;43.310;21.876;2023-02-19T08:21:26;6.4;96.0
22676;DHT22;12521;43.310;21.876;2023-02-19T08:26:03;6.4;96.0
22676;DHT22;12521;43.310;21.876;2023-02-19T08:30:43;6.7;96.0
22676;DHT22;12521;43.310;21.876;2023-02-19T08:35:24;6.7;96.0
22676;DHT22;12521;43.310;21.876;2023-02-19T08:40:04;7.2;96.0
22676;DHT22;12521;43.310;21.876;2023-02-19T08:44:41;7.2;96.0
22676;DHT22;12521;43.310;21.876;2023-02-19T08:49:17;7.7;96.0
22676;DHT22;12521;43.310;21.876;2023-02-19T08:53:53;7.7;96.0
22676;DHT22;12521;43.310;21.876;2023-02-19T08:58:30;8.1;96.0
22676;DHT22;12521;43.310;21.876;2023-02-19T09:03:08;8.1;96.0
22676;DHT22;12521;43.310;21.876;2023-02-19T09:07:45;8.5;96.0
22676;DHT22;12521;43.310;21.876;2023-02-19T09:12:21;8.5;96.0
22676;DHT22;12521;43.310;21.876;2023-02-19T09:17:00;8.5;96.0
22676;DHT22;12521;43.310;21.876;2023-02-19T09:21:43;8.8;96.0
22676;DHT22;12521;43.310;21.876;2023-02-19T09:26:20;8.8;96.0
22676;DHT22;12521;43.310;21.876;2023-02-19T09:31:02;9.0;96.0
22676;DHT22;12521;43.310;21.876;2023-02-19T09:35:45;9.0;96.0
22676;DHT22;12521;43.310;21.876;2023-02-19T09:40:22;9.4;96.0
22676;DHT22;12521;43.310;21.876;2023-02-19T09:45:00;9.4;96.0
22676;DHT22;12521;43.310;21.876;2023-02-19T09:49:51;9.8;96.0
22676;DHT22;12521;43.310;21.876;2023-02-19T09:54:41;9.8;96.0
22676;DHT22;12521;43.310;21.876;2023-02-19T09:59:24;10.2;96.0
22676;DHT22;12521;43.310;21.876;2023-02-19T10:04:16;10.2;96.0
22676;DHT22;12521;43.310;21.876;2023-02-19T10:08:54;10.7;96.0
22676;DHT22;12521;43.310;21.876;2023-02-19T10:14:03;10.7;96.0
22676;DHT22;12521;43.310;21.876;2023-02-19T10:18:53;11.1;96.0
22676;DHT22;12521;43.310;21.876;2023-02-19T10:23:30;11.1;96.0
22676;DHT22;12521;43.310;21.876;2023-02-19T10:28:10;11.6;96.0
22676;DHT22;12521;43.310;21.876;2023-02-19T10:33:07;11.6;96.0
22676;DHT22;12521;43.310;21.876;2023-02-19T10:37:51;12.1;96.0
22676;DHT22;12521;43.310;21.876;2023-02-19T10:42:30;12.1;96.0
22676;DHT22;12521;43.310;21.876;2023-02-19T10:47:07;12.1;96.0
22676;DHT22;12521;43.310;21.876;2023-02-19T10:52:09;12.7;96.0
22676;DHT22;12521;43.310;21.876;2023-02-19T10:57:21;12.7;96.0
22676;DHT22;12521;43.310;21.876;2023-02-19T11:02:16;13.2;96.0
22676;DHT22;12521;43.310;21.876;2023-02-19T11:06:56;13.2;96.0
22676;DHT22;12521;43.310;21.876;2023-02-19T11:11:34;13.7;96.0
22676;DHT22;12521;43.310;21.876;2023-02-19T11:16:15;13.7;96.0
22676;DHT22;12521;43.310;21.876;2023-02-19T11:20:53;14.2;96.0
22676;DHT22;12521;43.310;21.876;2023-02-19T11:25:43;14.2;96.0
22676;DHT22;12521;43.310;21.876;2023-02-19T11:30:34;14.7;96.0
22676;DHT22;12521;43.310;21.876;2023-02-19T11:35:19;14.7;96.0
22676;DHT22;12521;43.310;21.876;2023-02-19T11:39:58;15.2;96.0
22676;DHT22;12521;43.310;21.876;2023-02-19T11:44:44;15.2;96.0
22676;DHT22;12521;43.310;21.876;2023-02-19T11:50:17;15.6;95.0
22676;DHT22;12521;43.310;21.876;2023-02-19T11:55:40;15.6;95.0
22676;DHT22;12521;43.310;21.876;2023-02-19T12:00:58;15.9;93.0
22676;DHT22;12521;43.310;21.876;2023-02-19T12:06:22;15.9;93.0
22676;DHT22;12521;43.310;21.876;2023-02-19T12:12:08;16.2;92.0
22676;DHT22;12521;43.310;21.876;2023-02-19T12:20:11;16.4;92.0
22676;DHT22;12521;43.310;21.876;2023-02-19T12:25:46;16.4;92.0
22676;DHT22;12521;43.310;21.876;2023-02-19T12:31:15;16.7;91.0
22676;DHT22;12521;43.310;21.876;2023-02-19T12:37:11;16.7;91.0
22676;DHT22;12521;43.310;21.876;2023-02-19T12:42:43;16.9;91.0
22676;DHT22;12521;43.310;21.876;2023-02-19T12:48:00;17.1;90.0
22676;DHT22;12521;43.310;21.876;2023-02-19T12:53:13;17.1;90.0
22676;DHT22;12521;43.310;21.876;2023-02-19T12:58:27;17.4;89.0
22676;DHT22;12521;43.310;21.876;2023-02-19T13:03:27;17.4;89.0
22676;DHT22;12521;43.310;21.876;2023-02-19T13:08:51;17.6;87.0
22676;DHT22;12521;43.310;21.876;2023-02-19T13:13:57;17.6;87.0
22676;DHT22;12521;43.310;21.876;2023-02-19T13:19:08;17.8;86.0
22676;DHT22;12521;43.310;21.876;2023-02-19T13:23:45;17.8;86.0
22676;DHT22;12521;43.310;21.876;2023-02-19T13:28:36;17.9;85.0
22676;DHT22;12521;43.310;21.876;2023-02-19T13:34:19;17.9;85.0
22676;DHT22;12521;43.310;21.876;2023-02-19T13:40:02;17.8;85.0
22676;DHT22;12521;43.310;21.876;2023-02-19T13:45:20;17.8;85.0
22676;DHT22;12521;43.310;21.876;2023-02-19T13:50:19;17.8;85.0
22676;DHT22;12521;43.310;21.876;2023-02-19T13:56:35;17.8;85.0
22676;DHT22;12521;43.310;21.876;2023-02-19T14:01:15;17.9;84.0
22676;DHT22;12521;43.310;21.876;2023-02-19T14:05:57;17.9;84.0
22676;DHT22;12521;43.310;21.876;2023-02-19T14:10:51;18.0;84.0
22676;DHT22;12521;43.310;21.876;2023-02-19T14:15:39;18.0;84.0
22676;DHT22;12521;43.310;21.876;2023-02-19T14:20:40;17.8;84.0
22676;DHT22;12521;43.310;21.876;2023-02-19T14:25:28;17.8;84.0
22676;DHT22;12521;43.310;21.876;2023-02-19T14:30:32;17.7;84.0
22676;DHT22;12521;43.310;21.876;2023-02-19T14:35:34;17.7;84.0
22676;DHT22;12521;43.310;21.876;2023-02-19T14:40:36;17.4;85.0
22676;DHT22;12521;43.310;21.876;2023-02-19T14:45:26;17.4;85.0
22676;DHT22;12521;43.310;21.876;2023-02-19T14:50:28;17.1;86.0
22676;DHT22;12521;43.310;21.876;2023-02-19T14:55:16;17.1;86.0
22676;DHT22;12521;43.310;21.876;2023-02-19T15:00:22;16.9;86.0
22676;DHT22;12521;43.310;21.876;2023-02-19T15:05:14;16.9;86.0
22676;DHT22;12521;43.310;21.876;2023-02-19T15:10:04;16.7;86.0
22676;DHT22;12521;43.310;21.876;2023-02-19T15:14:52;16.7;86.0
22676;DHT22;12521;43.310;21.876;2023-02-19T15:19:42;16.6;87.0
22676;DHT22;12521;43.310;21.876;2023-02-19T15:24:19;16.6;87.0
22676;DHT22;12521;43.310;21.876;2023-02-19T15:28:58;16.6;87.0
22676;DHT22;12521;43.310;21.876;2023-02-19T15:33:49;16.6;87.0
22676;DHT22;12521;43.310;21.876;2023-02-19T15:38:28;16.5;87.0
22676;DHT22;12521;43.310;21.876;2023-02-19T15:43:19;16.5;87.0
22676;DHT22;12521;43.310;21.876;2023-02-19T15:48:21;16.4;88.0
22676;DHT22;12521;43.310;21.876;2023-02-19T15:53:36;16.4;88.0
22676;DHT22;12521;43.310;21.876;2023-02-19T15:58:41;16.0;89.0
22676;DHT22;12521;43.310;21.876;2023-02-19T16:03:39;16.0;89.0
22676;DHT22;12521;43.310;21.876;2023-02-19T16:08:19;15.7;90.0
22676;DHT22;12521;43.310;21.876;2023-02-19T16:13:04;15.7;90.0
22676;DHT22;12521;43.310;21.876;2023-02-19T16:17:42;15.2;91.0
22676;DHT22;12521;43.310;21.876;2023-02-19T16:22:23;15.2;91.0
22676;DHT22;12521;43.310;21.876;2023-02-19T16:27:27;15.2;91.0
22676;DHT22;12521;43.310;21.876;2023-02-19T16:32:16;14.8;93.0
22676;DHT22;12521;43.310;21.876;2023-02-19T16:36:52;14.8;93.0
22676;DHT22;12521;43.310;21.876;2023-02-19T16:41:29;14.4;94.0
22676;DHT22;12521;43.310;21.876;2023-02-19T16:46:08;14.4;94.0
22676;DHT22;12521;43.310;21.876;2023-02-19T16:50:48;14.1;94.0
22676;DHT22;12521;43.310;21.876;2023-02-19T16:55:26;14.1;94.0
22676;DHT22;12521;43.310;21.876;2023-02-19T17:00:07;13.8;95.0
22676;DHT22;12521;43.310;21.876;2023-02-19T17:04:56;13.8;95.0
22676;DHT22;12521;43.310;21.876;2023-02-19T17:09:33;13.5;96.0
22676;DHT22;12521;43.310;21.876;2023-02-19T17:14:09;13.5;96.0
22676;DHT22;12521;43.310;21.876;2023-02-19T17:18:46;13.4;96.0
22676;DHT22;12521;43.310;21.876;2023-02-19T17:23:26;13.4;96.0
22676;DHT22;12521;43.310;21.876;2023-02-19T17:28:02;13.3;96.0
22676;DHT22;12521;43.310;21.876;2023-02-19T17:32:40;13.3;96.0
22676;DHT22;12521;43.310;21.876;2023-02-19T17:37:17;13.3;96.0
22676;DHT22;12521;43.310;21.876;2023-02-19T17:41:53;13.2;96.0
22676;DHT22;12521;43.310;21.876;2023-02-19T17:46:30;13.2;96.0
22676;DHT22;12521;43.310;21.876;2023-02-19T17:51:08;13.1;96.0
22676;DHT22;12521;43.310;21.876;2023-02-19T17:55:46;13.1;96.0
22676;DHT22;12521;43.310;21.876;2023-02-19T18:00:24;13.2;96.0
22676;DHT22;12521;43.310;21.876;2023-02-19T18:05:06;13.2;96.0
22676;DHT22;12521;43.310;21.876;2023-02-19T18:09:43;13.2;96.0
22676;DHT22;12521;43.310;21.876;2023-02-19T18:14:20;13.2;96.0
22676;DHT22;12521;43.310;21.876;2023-02-19T18:18:57;13.1;96.0
22676;DHT22;12521;43.310;21.876;2023-02-19T18:23:33;13.1;96.0
22676;DHT22;12521;43.310;21.876;2023-02-19T18:28:12;13.0;96.0
22676;DHT22;12521;43.310;21.876;2023-02-19T18:32:50;13.0;96.0
22676;DHT22;12521;43.310;21.876;2023-02-19T18:37:28;13.0;96.0
22676;DHT22;12521;43.310;21.876;2023-02-19T18:42:06;12.9;96.0
22676;DHT22;12521;43.310;21.876;2023-02-19T18:46:43;12.9;96.0
22676;DHT22;12521;43.310;21.876;2023-02-19T18:51:20;12.8;96.0
22676;DHT22;12521;43.310;21.876;2023-02-19T18:55:58;12.8;96.0
22676;DHT22;12521;43.310;21.876;2023-02-19T19:00:35;12.6;96.0
22676;DHT22;12521;43.310;21.876;2023-02-19T19:05:11;12.6;96.0
22676;DHT22;12521;43.310;21.876;2023-02-19T19:09:48;12.5;96.0
22676;DHT22;12521;43.310;21.876;2023-02-19T19:14:25;12.5;96.0
22676;DHT22;12521;43.310;21.876;2023-02-19T19:19:02;12.4;96.0
22676;DHT22;12521;43.310;21.876;2023-02-19T19:23:39;12.4;96.0
22676;DHT22;12521;43.310;21.876;2023-02-19T19:28:16;12.4;96.0
22676;DHT22;12521;43.310;21.876;2023-02-19T19:32:52;12.4;96.0
22676;DHT22;12521;43.310;21.876;2023-02-19T19:37:29;12.4;96.0
22676;DHT22;12521;43.310;21.876;2023-02-19T19:42:05;12.4;96.0
22676;DHT22;12521;43.310;21.876;2023-02-19T19:46:43;12.4;96.0
22676;DHT22;12521;43.310;21.876;2023-02-19T19:51:21;12.3;96.0
22676;DHT22;12521;43.310;21.876;2023-02-19T19:55:59;12.3;96.0
22676;DHT22;12521;43.310;21.876;2023-02-19T20:00:39;12.3;96.0
22676;DHT22;12521;43.310;21.876;2023-02-19T20:05:16;12.3;96.0
22676;DHT22;12521;43.310;21.876;2023-02-19T20:09:53;12.3;96.0
22676;DHT22;12521;43.310;21.876;2023-02-19T20:14:30;12.3;96.0
22676;DHT22;12521;43.310;21.876;2023-02-19T20:19:07;12.2;96.0
22676;DHT22;12521;43.310;21.876;2023-02-19T20:23:45;12.2;96.0
22676;DHT22;12521;43.310;21.876;2023-02-19T20:28:22;12.2;96.0
22676;DHT22;12521;43.310;21.876;2023-02-19T20:32:59;12.2;96.0
22676;DHT22;12521;43.310;21.876;2023-02-19T20:37:36;12.2;96.0
22676;DHT22;12521;43.310;21.876;2023-02-19T20:42:15;12.0;96.0
22676;DHT22;12521;43.310;21.876;2023-02-19T20:46:55;12.0;96.0
22676;DHT22;12521;43.310;21.876;2023-02-19T20:51:41;11.9;96.0
22676;DHT22;12521;43.310;21.876;2023-02-19T20:56:23;11.9;96.0
22676;DHT22;12521;43.310;21.876;2023-02-19T21:01:00;11.9;96.0
22676;DHT22;12521;43.310;21.876;2023-02-19T21:05:37;11.9;96.0
22676;DHT22;12521;43.310;21.876;2023-02-19T21:10:13;11.9;96.0
22676;DHT22;12521;43.310;21.876;2023-02-19T21:14:51;11.9;96.0
22676;DHT22;12521;43.310;21.876;2023-02-19T21:19:27;11.9;96.0
22676;DHT22;12521;43.310;21.876;2023-02-19T21:24:04;11.9;96.0
22676;DHT22;12521;43.310;21.876;2023-02-19T21:28:49;11.8;96.0
22676;DHT22;12521;43.310;21.876;2023-02-19T21:33:28;11.8;96.0
22676;DHT22;12521;43.310;21.876;2023-02-19T21:38:04;11.6;96.0
22676;DHT22;12521;43.310;21.876;2023-02-19T21:42:41;11.6;96.0
22676;DHT22;12521;43.310;21.876;2023-02-19T21:47:18;11.6;96.0
22676;DHT22;12521;43.310;21.876;2023-02-19T21:51:54;11.5;96.0
22676;DHT22;12521;43.310;21.876;2023-02-19T21:56:32;11.5;96.0
22676;DHT22;12521;43.310;21.876;2023-02-19T22:01:10;11.5;96.0
22676;DHT22;12521;43.310;21.876;2023-02-19T22:05:46;11.5;96.0
22676;DHT22;12521;43.310;21.876;2023-02-19T22:10:23;11.5;96.0
22676;DHT22;12521;43.310;21.876;2023-02-19T22:14:59;11.5;96.0
22676;DHT22;12521;43.310;21.876;2023-02-19T22:19:36;11.6;96.0
22676;DHT22;12521;43.310;21.876;2023-02-19T22:24:15;11.6;96.0
22676;DHT22;12521;43.310;21.876;2023-02-19T22:28:57;11.8;96.0
22676;DHT22;12521;43.310;21.876;2023-02-19T22:33:36;11.8;96.0
22676;DHT22;12521;43.310;21.876;2023-02-19T22:38:13;11.8;96.0
22676;DHT22;12521;43.310;21.876;2023-02-19T22:42:49;11.8;96.0
22676;DHT22;12521;43.310;21.876;2023-02-19T22:47:26;11.8;96.0
22676;DHT22;12521;43.310;21.876;2023-02-19T22:52:05;11.7;96.0
22676;DHT22;12521;43.310;21.876;2023-02-19T22:56:48;11.7;96.0
22676;DHT22;12521;43.310;21.876;2023-02-19T23:01:25;11.6;96.0
22676;DHT22;12521;43.310;21.876;2023-02-19T23:06:03;11.6;96.0
22676;DHT22;12521;43.310;21.876;2023-02-19T23:10:41;11.6;96.0
22676;DHT22;12521;43.310;21.876;2023-02-19T23:15:18;11.6;96.0
22676;DHT22;12521;43.310;21.876;2023-02-19T23:19:55;11.4;96.0
22676;DHT22;12521;43.310;21.876;2023-02-19T23:24:32;11.4;96.0
22676;DHT22;12521;43.310;21.876;2023-02-19T23:29:09;11.2;96.0
22676;DHT22;12521;43.310;21.876;2023-02-19T23:33:51;11.2;96.0
22676;DHT22;12521;43.310;21.876;2023-02-19T23:38:29;11.0;96.0
22676;DHT22;12521;43.310;21.876;2023-02-19T23:43:06;11.0;96.0
22676;DHT22;12521;43.310;21.876;2023-02-19T23:47:43;11.0;96.0
22676;DHT22;12521;43.310;21.876;2023-02-19T23:52:20;10.8;96.0
22676;DHT22;12521;43.310;21.876;2023-02-19T23:56:57;10.8;96.0
